Time;durP1;ratioP1;P1;durP2;ratioP2;P2;SDS_P1;SDS_P2;PMS_P1;PMS_P2;Temp;Humidity;BMP_temperature;BMP_pressure;BME280_temperature;BME280_humidity;BME280_pressure;Samples;Min_cycle;Max_cycle;Signal;HPM_P1;HPM_P2
2022/01/13 00:02:16;;;;;;;2.83;0.98;;;5.30;99.90;;;;;;4876847;28;20193;-64
2022/01/13 00:05:04;;;;;;;4.23;0.48;;;5.20;99.90;;;;;;1257364;28;10023288;-64
2022/01/13 00:07:31;;;;;;;5.25;0.55;;;5.20;99.90;;;;;;4606102;28;10001082;-68
2022/01/13 00:09:58;;;;;;;4.40;0.88;;;5.20;99.90;;;;;;4947830;28;20162;-63
2022/01/13 00:12:30;;;;;;;3.63;1.02;;;5.20;99.90;;;;;;4948865;28;20654;-67
2022/01/13 00:15:10;;;;;;;2.33;0.90;;;5.20;99.90;;;;;;4948604;28;20334;-64
2022/01/13 00:25:54;;;;;;;2.13;0.68;;;5.10;99.90;;;;;;4949724;28;20098;-64
2022/01/13 00:28:22;;;;;;;2.33;0.70;;;5.10;99.90;;;;;;4951613;28;20055;-66
2022/01/13 00:30:53;;;;;;;0.80;0.80;;;5.10;99.90;;;;;;4951683;28;20047;-63
2022/01/13 00:33:24;;;;;;;0.93;0.52;;;5.10;99.90;;;;;;4945297;28;20051;-63
2022/01/13 00:35:56;;;;;;;;;;;5.10;99.90;;;;;;4950960;28;20042;-65
2022/01/13 00:38:23;;;;;;;1.83;0.73;;;5.10;99.90;;;;;;4950376;28;19918;-63
2022/01/13 00:40:50;;;;;;;2.15;0.60;;;5.10;99.90;;;;;;4951557;28;20650;-66
2022/01/13 00:43:17;;;;;;;1.13;0.60;;;5.10;99.90;;;;;;4948145;28;20117;-66
2022/01/13 00:45:46;;;;;;;0.95;0.60;;;5.10;99.90;;;;;;4950954;28;20057;-64
2022/01/13 00:48:14;;;;;;;2.63;0.70;;;5.10;99.90;;;;;;4951570;28;20051;-64
2022/01/13 00:50:41;;;;;;;2.70;0.90;;;5.10;99.90;;;;;;4950762;28;20039;-65
2022/01/13 00:53:08;;;;;;;3.95;0.85;;;5.10;99.90;;;;;;4951093;28;20122;-66
2022/01/13 00:58:20;;;;;;;0.80;0.80;;;5.10;99.90;;;;;;4940437;28;20103;-63
2022/01/13 01:00:47;;;;;;;3.00;0.50;;;5.10;99.90;;;;;;4950000;28;20094;-65
2022/01/13 01:03:15;;;;;;;1.10;0.63;;;5.10;99.90;;;;;;4948945;28;20055;-64
2022/01/13 01:05:42;;;;;;;2.92;0.60;;;5.10;99.90;;;;;;4951745;28;20082;-63
2022/01/13 01:08:09;;;;;;;1.00;0.40;;;5.20;99.90;;;;;;4951216;28;20043;-63
2022/01/13 01:10:38;;;;;;;5.95;1.45;;;5.20;99.90;;;;;;4946431;28;20047;-63
2022/01/13 01:13:13;;;;;;;3.78;0.70;;;5.10;99.90;;;;;;4949443;28;20465;-64
2022/01/13 01:15:45;;;;;;;2.72;0.52;;;5.10;99.90;;;;;;4949498;28;20039;-71
2022/01/13 01:21:16;;;;;;;2.08;0.73;;;5.10;99.90;;;;;;4949164;28;20051;-66
2022/01/13 01:29:05;;;;;;;1.42;0.80;;;5.10;99.90;;;;;;4947316;28;20051;-63
2022/01/13 01:31:35;;;;;;;2.42;0.43;;;5.10;99.90;;;;;;4946148;28;20049;-72
2022/01/13 01:36:42;;;;;;;4.82;1.08;;;5.10;99.90;;;;;;4950190;28;20055;-64
2022/01/13 01:39:10;;;;;;;3.03;1.10;;;5.10;99.90;;;;;;4948696;28;20161;-65
2022/01/13 01:41:46;;;;;;;1.88;0.90;;;5.10;99.90;;;;;;4951741;28;20569;-64
2022/01/13 01:44:18;;;;;;;4.07;1.13;;;5.00;99.90;;;;;;4951011;28;20074;-65
2022/01/13 01:46:46;;;;;;;3.05;0.90;;;5.00;99.90;;;;;;4948813;28;20103;-63
2022/01/13 01:49:17;;;;;;;2.05;1.85;;;5.00;99.90;;;;;;4947961;28;20551;-64
2022/01/13 01:51:46;;;;;;;3.35;0.70;;;5.00;99.90;;;;;;4945611;28;20052;-80
2022/01/13 01:54:13;;;;;;;5.95;1.10;;;5.00;99.90;;;;;;4950849;28;20142;-63
2022/01/13 01:56:41;;;;;;;3.00;1.30;;;5.00;99.90;;;;;;4950193;28;20425;-64
2022/01/13 01:59:12;;;;;;;0.77;0.75;;;5.00;99.90;;;;;;4949563;28;20070;-63
2022/01/13 02:11:28;;;;;;;1.50;0.60;;;5.00;99.90;;;;;;4960403;28;20025;-62
2022/01/13 02:13:59;;;;;;;2.97;0.98;;;5.00;99.90;;;;;;4960838;28;20051;-63
2022/01/13 02:19:02;;;;;;;2.92;1.83;;;5.00;99.90;;;;;;4967482;28;20035;-64
2022/01/13 02:21:29;;;;;;;7.35;1.85;;;5.10;99.90;;;;;;4973646;28;20398;-64
2022/01/13 02:23:57;;;;;;;2.80;1.20;;;5.00;99.90;;;;;;4991132;28;20314;-67
2022/01/13 02:26:24;;;;;;;3.80;0.70;;;5.10;99.90;;;;;;4996543;28;20042;-63
2022/01/13 02:28:53;;;;;;;5.82;1.25;;;5.00;99.90;;;;;;4996434;28;20129;-63
2022/01/13 02:31:21;;;;;;;3.65;0.85;;;5.00;99.90;;;;;;4995532;28;20112;-63
2022/01/13 02:33:48;;;;;;;2.40;0.68;;;5.10;99.90;;;;;;4993543;28;20054;-63
2022/01/13 02:36:18;;;;;;;4.72;1.65;;;5.10;99.90;;;;;;4986239;28;20047;-63
2022/01/13 02:38:53;;;;;;;3.05;1.23;;;5.00;99.90;;;;;;4974735;28;20158;-69
2022/01/13 02:41:24;;;;;;;3.03;1.20;;;5.00;99.90;;;;;;4992609;28;20054;-63
2022/01/13 02:43:53;;;;;;;3.20;0.57;;;5.00;99.90;;;;;;4983774;28;20119;-63
2022/01/13 02:49:00;;;;;;;4.90;1.30;;;5.00;99.90;;;;;;4986796;28;20049;-69
2022/01/13 02:51:27;;;;;;;2.15;0.80;;;5.00;99.90;;;;;;4990057;28;20042;-70
2022/01/13 02:53:54;;;;;;;10.05;1.10;;;5.00;99.90;;;;;;4976273;28;20046;-63
2022/01/13 02:56:21;;;;;;;2.20;1.58;;;5.00;99.90;;;;;;4993542;28;20042;-63
2022/01/13 02:58:48;;;;;;;4.57;1.25;;;5.00;99.90;;;;;;4972856;28;20121;-64
2022/01/13 03:01:16;;;;;;;3.03;1.10;;;5.00;99.90;;;;;;4985030;28;20057;-63
2022/01/13 03:03:44;;;;;;;3.22;1.20;;;5.00;99.90;;;;;;4996502;28;20041;-63
2022/01/13 03:06:14;;;;;;;7.88;1.70;;;5.00;99.90;;;;;;4986774;28;20836;-67
2022/01/13 03:08:44;;;;;;;8.23;2.70;;;5.00;99.90;;;;;;4985828;28;20130;-64
2022/01/13 03:11:11;;;;;;;8.88;4.68;;;5.00;99.90;;;;;;4986931;28;20088;-70
2022/01/13 03:13:39;;;;;;;5.00;1.40;;;4.90;99.90;;;;;;4984563;28;20038;-68
2022/01/13 03:16:11;;;;;;;4.43;0.95;;;4.90;99.90;;;;;;4985242;28;20074;-70
2022/01/13 03:18:39;;;;;;;12.38;1.50;;;4.90;99.90;;;;;;4969077;28;20038;-70
2022/01/13 03:21:07;;;;;;;7.75;2.33;;;4.90;99.90;;;;;;4983531;28;20129;-73
2022/01/13 03:23:36;;;;;;;9.35;2.22;;;4.90;99.90;;;;;;4988618;28;20104;-63
2022/01/13 03:26:04;;;;;;;6.47;1.55;;;4.90;99.90;;;;;;4986228;28;20042;-73
2022/01/13 03:28:38;;;;;;;6.22;1.98;;;4.90;99.90;;;;;;4978814;28;20084;-68
2022/01/13 03:31:07;;;;;;;4.95;1.30;;;5.00;99.90;;;;;;4985874;28;20042;-63
2022/01/13 03:33:34;;;;;;;4.30;1.92;;;4.90;99.90;;;;;;4993115;28;20037;-64
2022/01/13 03:36:02;;;;;;;7.85;3.17;;;4.90;99.90;;;;;;4989130;28;20126;-64
2022/01/13 03:38:31;;;;;;;7.60;2.25;;;4.90;99.90;;;;;;4993267;28;20108;-64
2022/01/13 03:40:58;;;;;;;11.57;1.92;;;4.90;99.90;;;;;;4984664;28;20101;-65
2022/01/13 03:43:24;;;;;;;7.38;2.25;;;4.90;99.90;;;;;;4987175;28;20116;-64
2022/01/13 03:45:52;;;;;;;7.97;1.95;;;4.90;99.90;;;;;;4985667;28;20046;-65
2022/01/13 03:48:19;;;;;;;12.85;3.00;;;4.90;99.90;;;;;;4991451;28;20045;-66
2022/01/13 03:50:46;;;;;;;7.45;2.15;;;4.90;99.90;;;;;;4988365;28;20042;-63
2022/01/13 03:53:28;;;;;;;8.25;1.58;;;4.90;99.90;;;;;;4987653;28;20499;-64
2022/01/13 03:56:32;;;;;;;5.47;1.33;;;4.90;99.90;;;;;;4987521;28;20065;-72
2022/01/13 03:59:36;;;;;;;3.78;1.58;;;4.90;99.90;;;;;;4990074;28;20609;-70
2022/01/13 04:02:08;;;;;;;9.00;1.50;;;4.80;99.90;;;;;;4994981;28;20787;-64
2022/01/13 04:04:47;;;;;;;8.95;2.75;;;4.80;99.90;;;;;;4991514;28;20053;-63
2022/01/13 04:07:16;;;;;;;10.93;2.65;;;4.80;99.90;;;;;;4981539;28;20165;-63
2022/01/13 04:09:43;;;;;;;5.95;2.20;;;4.80;99.90;;;;;;4992535;28;20046;-63
2022/01/13 04:12:13;;;;;;;3.80;2.17;;;4.70;99.90;;;;;;4994704;28;20806;-63
2022/01/13 04:14:58;;;;;;;8.30;1.65;;;4.80;99.90;;;;;;4993857;28;20061;-63
2022/01/13 04:17:26;;;;;;;;;;;4.80;99.90;;;;;;4990582;28;20049;-63
2022/01/13 04:19:54;;;;;;;12.70;1.98;;;4.80;99.90;;;;;;4991769;28;19976;-68
2022/01/13 04:22:21;;;;;;;13.88;2.13;;;4.80;99.90;;;;;;4993925;28;20046;-70
2022/01/13 04:24:50;;;;;;;9.40;2.00;;;4.80;99.90;;;;;;4993309;28;20169;-65
2022/01/13 04:27:23;;;;;;;8.88;1.85;;;4.80;99.90;;;;;;4987644;28;21381;-64
2022/01/13 04:30:11;;;;;;;5.03;1.60;;;4.90;99.90;;;;;;4999898;28;20084;-63
2022/01/13 04:32:38;;;;;;;8.40;1.80;;;4.90;99.90;;;;;;4992449;28;20039;-63
2022/01/13 04:35:10;;;;;;;6.72;1.70;;;4.90;99.90;;;;;;4996142;28;20045;-63
2022/01/13 04:37:37;;;;;;;8.93;2.05;;;4.90;99.90;;;;;;4989526;28;20111;-68
2022/01/13 04:40:08;;;;;;;7.60;2.67;;;4.90;99.90;;;;;;4991487;28;20050;-63
2022/01/13 04:42:37;;;;;;;8.27;1.60;;;4.90;99.90;;;;;;4991491;28;20188;-63
2022/01/13 04:45:05;;;;;;;7.63;2.55;;;4.90;99.90;;;;;;4991406;28;20066;-64
2022/01/13 04:47:32;;;;;;;8.30;2.00;;;4.90;99.90;;;;;;4998963;28;20085;-65
2022/01/13 04:49:59;;;;;;;7.68;1.65;;;4.90;99.90;;;;;;4999628;28;20034;-65
2022/01/13 04:52:26;;;;;;;3.80;1.42;;;4.90;99.90;;;;;;4995603;28;20365;-63
2022/01/13 04:54:53;;;;;;;8.63;2.08;;;4.90;99.90;;;;;;4993016;28;20054;-64
2022/01/13 04:57:20;;;;;;;8.77;2.40;;;4.90;99.90;;;;;;4994482;28;20499;-63
2022/01/13 04:59:47;;;;;;;5.55;1.65;;;4.90;99.90;;;;;;4993702;28;20078;-73
2022/01/13 05:02:16;;;;;;;6.07;1.67;;;4.80;99.90;;;;;;4990313;28;20070;-63
2022/01/13 05:04:44;;;;;;;8.48;1.80;;;4.90;99.90;;;;;;4989599;28;20053;-63
2022/01/13 05:07:11;;;;;;;8.57;1.70;;;4.90;99.90;;;;;;4989150;28;20078;-65
2022/01/13 05:09:37;;;;;;;15.57;2.05;;;4.90;99.90;;;;;;4991871;28;20153;-64
2022/01/13 05:12:05;;;;;;;9.23;1.80;;;4.90;99.90;;;;;;4995435;28;20041;-64
2022/01/13 05:14:32;;;;;;;5.50;1.67;;;4.90;99.90;;;;;;4992403;28;20388;-63
2022/01/13 05:19:34;;;;;;;9.95;3.13;;;5.00;99.90;;;;;;4988621;28;20039;-63
2022/01/13 05:24:40;;;;;;;6.28;2.78;;;5.00;99.90;;;;;;4991829;28;20041;-64
2022/01/13 05:27:08;;;;;;;7.20;1.85;;;5.10;99.90;;;;;;4990069;28;20504;-63
2022/01/13 05:29:35;;;;;;;8.13;1.80;;;5.00;99.90;;;;;;4991412;28;20138;-64
2022/01/13 05:32:02;;;;;;;5.13;1.75;;;5.00;99.90;;;;;;4989968;28;20479;-63
2022/01/13 05:34:29;;;;;;;7.13;1.50;;;5.00;99.90;;;;;;4988758;28;20042;-63
2022/01/13 05:37:11;;;;;;;6.15;2.03;;;5.00;99.90;;;;;;4997281;28;20069;-70
2022/01/13 05:39:38;;;;;;;7.05;1.98;;;5.00;99.90;;;;;;4991493;28;20046;-66
2022/01/13 05:42:06;;;;;;;13.07;2.92;;;5.00;99.90;;;;;;4990043;28;20100;-63
2022/01/13 05:44:38;;;;;;;5.28;2.30;;;5.10;99.90;;;;;;4987837;28;20488;-63
2022/01/13 05:47:07;;;;;;;15.88;3.05;;;5.00;99.90;;;;;;4987512;28;20035;-64
2022/01/13 05:49:34;;;;;;;7.57;1.67;;;5.00;99.90;;;;;;4981819;28;20050;-64
2022/01/13 05:52:02;;;;;;;15.88;2.30;;;5.10;99.90;;;;;;4984001;28;20125;-68
2022/01/13 05:54:29;;;;;;;9.43;2.13;;;5.10;99.90;;;;;;4987562;28;20109;-63
2022/01/13 05:56:56;;;;;;;8.68;2.00;;;5.00;99.90;;;;;;5000323;28;20128;-64
2022/01/13 05:59:23;;;;;;;13.13;2.92;;;5.10;99.90;;;;;;4989896;28;20042;-63
2022/01/13 06:01:51;;;;;;;9.43;2.75;;;5.00;99.90;;;;;;4999603;28;20038;-67
2022/01/13 06:04:18;;;;;;;10.77;2.67;;;5.00;99.90;;;;;;4985542;28;20479;-63
2022/01/13 06:06:46;;;;;;;13.23;2.60;;;5.00;99.90;;;;;;4985222;28;20155;-63
2022/01/13 06:09:13;;;;;;;6.18;2.22;;;5.10;99.90;;;;;;4988235;28;20076;-67
2022/01/13 06:11:44;;;;;;;13.43;2.88;;;5.10;99.90;;;;;;4987644;28;20137;-63
2022/01/13 06:14:10;;;;;;;17.65;5.50;;;5.10;99.90;;;;;;4969834;28;20043;-68
2022/01/13 06:16:37;;;;;;;17.58;3.03;;;5.00;99.90;;;;;;4984833;28;20046;-65
2022/01/13 06:19:04;;;;;;;15.10;2.10;;;5.10;99.90;;;;;;4985240;28;20050;-63
2022/01/13 06:21:31;;;;;;;17.63;3.25;;;5.20;99.90;;;;;;4991157;28;20511;-81
2022/01/13 06:23:58;;;;;;;7.15;2.35;;;5.30;99.90;;;;;;4988528;28;20041;-63
2022/01/13 06:26:26;;;;;;;11.43;2.83;;;5.40;99.90;;;;;;4991863;28;20066;-64
2022/01/13 06:28:53;;;;;;;16.98;2.55;;;5.50;99.90;;;;;;4986335;28;20544;-70
2022/01/13 06:31:20;;;;;;;11.80;3.40;;;5.60;99.90;;;;;;4984289;28;20129;-65
2022/01/13 06:33:47;;;;;;;13.77;3.67;;;5.70;99.90;;;;;;4985263;28;20050;-71
2022/01/13 06:36:14;;;;;;;7.82;3.20;;;5.80;99.90;;;;;;4981366;28;20057;-75
2022/01/13 06:38:42;;;;;;;19.90;5.65;;;5.90;99.90;;;;;;4985280;28;20514;-70
2022/01/13 06:41:09;;;;;;;12.65;3.85;;;5.90;99.90;;;;;;4984919;28;20042;-68
2022/01/13 06:43:36;;;;;;;16.48;3.38;;;5.90;99.90;;;;;;4985113;28;20074;-65
2022/01/13 06:46:04;;;;;;;12.02;3.00;;;5.90;99.90;;;;;;4981746;28;20054;-63
2022/01/13 06:48:31;;;;;;;17.08;3.05;;;5.90;99.90;;;;;;4988785;28;20046;-64
2022/01/13 06:50:58;;;;;;;13.15;2.45;;;5.90;99.90;;;;;;4986502;28;20114;-65
2022/01/13 06:53:25;;;;;;;12.10;3.28;;;5.90;99.90;;;;;;4984288;28;20046;-64
2022/01/13 06:55:52;;;;;;;12.15;4.20;;;5.90;99.90;;;;;;4984439;28;20821;-63
2022/01/13 06:58:19;;;;;;;8.05;2.42;;;5.90;99.90;;;;;;4989587;28;20427;-66
2022/01/13 07:00:46;;;;;;;11.50;3.47;;;5.90;99.90;;;;;;4983935;28;20512;-70
2022/01/13 07:03:13;;;;;;;17.52;3.30;;;5.90;99.90;;;;;;4988468;28;20405;-67
2022/01/13 07:05:40;;;;;;;9.55;3.30;;;5.90;99.90;;;;;;4984764;28;20164;-63
2022/01/13 07:08:12;;;;;;;11.32;3.15;;;5.90;99.90;;;;;;4985634;28;20445;-65
2022/01/13 07:10:40;;;;;;;16.48;3.15;;;5.90;99.90;;;;;;4980785;28;20034;-67
2022/01/13 07:13:07;;;;;;;9.95;2.97;;;5.90;99.90;;;;;;4983651;28;20096;-67
2022/01/13 07:15:34;;;;;;;16.52;4.53;;;5.90;99.90;;;;;;4986301;28;20046;-66
2022/01/13 07:18:01;;;;;;;17.77;2.50;;;5.80;99.90;;;;;;4986231;28;20130;-68
2022/01/13 07:20:28;;;;;;;16.33;3.70;;;5.80;99.90;;;;;;4982311;28;20038;-68
2022/01/13 07:22:55;;;;;;;15.77;3.45;;;5.70;99.90;;;;;;4986409;28;20054;-63
2022/01/13 07:25:22;;;;;;;15.25;2.78;;;5.70;99.90;;;;;;4985556;28;20129;-63
2022/01/13 07:27:49;;;;;;;17.55;3.92;;;5.60;99.90;;;;;;4987388;28;20110;-68
2022/01/13 07:30:16;;;;;;;23.42;4.03;;;5.60;99.90;;;;;;4993536;28;20144;-63
2022/01/13 07:32:43;;;;;;;13.15;3.08;;;5.50;99.90;;;;;;4989893;28;20054;-66
2022/01/13 07:35:11;;;;;;;12.05;2.95;;;5.50;99.90;;;;;;4992304;28;20483;-64
2022/01/13 07:37:39;;;;;;;14.40;2.70;;;5.50;99.90;;;;;;4993958;28;20172;-71
2022/01/13 07:40:08;;;;;;;13.20;3.35;;;5.50;99.90;;;;;;4997574;28;20046;-64
2022/01/13 07:42:41;;;;;;;7.55;3.47;;;5.40;99.90;;;;;;4991293;28;20399;-71
2022/01/13 07:45:10;;;;;;;17.35;4.05;;;5.30;99.90;;;;;;4986312;28;20112;-65
2022/01/13 07:47:37;;;;;;;14.82;3.50;;;5.30;99.90;;;;;;4990916;28;20077;-65
2022/01/13 07:50:06;;;;;;;16.58;3.40;;;5.30;99.90;;;;;;4987420;28;20042;-64
2022/01/13 07:52:33;;;;;;;19.75;3.80;;;5.30;99.90;;;;;;4988516;28;20038;-63
2022/01/13 07:55:00;;;;;;;16.25;3.72;;;5.20;99.90;;;;;;4988648;28;20119;-66
2022/01/13 07:57:27;;;;;;;18.15;4.43;;;5.20;99.90;;;;;;4988240;28;20133;-65
2022/01/13 07:59:54;;;;;;;17.30;3.70;;;5.20;99.90;;;;;;4995549;28;20129;-64
2022/01/13 08:02:26;;;;;;;24.00;4.97;;;5.20;99.90;;;;;;5000223;28;20423;-63
2022/01/13 08:04:53;;;;;;;19.33;4.35;;;5.20;99.90;;;;;;4990384;28;20041;-64
2022/01/13 08:07:20;;;;;;;19.23;4.00;;;5.20;99.90;;;;;;4988833;28;20054;-69
2022/01/13 08:09:47;;;;;;;23.58;5.10;;;5.20;99.90;;;;;;4991592;28;20129;-64
2022/01/13 08:12:14;;;;;;;21.38;4.28;;;5.20;99.90;;;;;;4998249;28;20096;-68
2022/01/13 08:14:41;;;;;;;18.05;4.32;;;5.20;99.90;;;;;;4987781;28;20066;-65
2022/01/13 08:17:18;;;;;;;9.50;3.35;;;5.20;99.90;;;;;;4995467;28;20100;-64
2022/01/13 08:19:45;;;;;;;18.00;3.65;;;5.20;99.90;;;;;;4992257;28;20054;-67
2022/01/13 08:22:16;;;;;;;18.52;4.13;;;5.20;99.90;;;;;;4995764;28;20042;-63
2022/01/13 08:24:43;;;;;;;20.55;5.63;;;5.20;99.90;;;;;;4989217;28;20543;-66
2022/01/13 08:27:10;;;;;;;16.13;4.82;;;5.20;99.90;;;;;;4993765;28;20473;-65
2022/01/13 08:29:37;;;;;;;23.02;4.63;;;5.20;99.90;;;;;;4987844;28;20046;-71
2022/01/13 08:32:05;;;;;;;17.77;4.80;;;5.20;99.90;;;;;;4990632;28;20414;-64
2022/01/13 08:34:32;;;;;;;21.75;5.40;;;5.20;99.90;;;;;;4989742;28;20053;-64
2022/01/13 08:36:59;;;;;;;17.30;4.55;;;5.20;99.90;;;;;;4985587;28;20089;-63
2022/01/13 08:39:26;;;;;;;19.73;4.07;;;5.30;99.90;;;;;;4991650;28;20459;-65
2022/01/13 08:41:52;;;;;;;21.85;4.57;;;5.30;99.90;;;;;;4993104;28;20050;-66
2022/01/13 08:44:20;;;;;;;21.17;3.35;;;5.30;99.90;;;;;;4996374;28;20054;-63
2022/01/13 08:46:46;;;;;;;15.60;4.15;;;5.40;99.90;;;;;;4996492;28;20101;-64
2022/01/13 08:49:14;;;;;;;14.98;4.45;;;5.50;99.90;;;;;;4986533;28;20054;-67
2022/01/13 08:51:41;;;;;;;21.38;6.28;;;5.50;99.90;;;;;;4996743;28;20580;-67
2022/01/13 08:54:08;;;;;;;15.77;4.32;;;5.50;99.90;;;;;;4990756;28;20460;-66
2022/01/13 08:56:36;;;;;;;15.77;4.63;;;5.50;99.90;;;;;;4990463;28;20047;-64
2022/01/13 08:59:03;;;;;;;18.33;4.60;;;5.50;99.90;;;;;;4983795;28;20548;-63
2022/01/13 09:01:30;;;;;;;14.65;4.38;;;5.50;99.90;;;;;;4989779;28;20073;-63
2022/01/13 09:03:58;;;;;;;17.08;4.15;;;5.50;99.90;;;;;;4996450;28;20073;-65
2022/01/13 09:06:25;;;;;;;21.17;4.63;;;5.50;99.90;;;;;;4996024;28;20073;-65
2022/01/13 09:08:52;;;;;;;12.50;3.40;;;5.50;99.90;;;;;;4996362;28;20373;-64
2022/01/13 09:11:19;;;;;;;11.40;3.88;;;5.50;99.90;;;;;;4989228;28;20121;-64
2022/01/13 09:13:46;;;;;;;21.38;5.22;;;5.50;99.90;;;;;;4991437;28;20155;-63
2022/01/13 09:16:15;;;;;;;17.17;4.13;;;5.50;99.90;;;;;;4986967;28;20125;-64
2022/01/13 09:19:07;;;;;;;17.57;4.00;;;5.50;99.90;;;;;;4993854;28;20046;-64
2022/01/13 09:21:37;;;;;;;18.52;4.57;;;5.60;99.90;;;;;;4986478;28;20038;-63
2022/01/13 09:24:06;;;;;;;12.60;3.95;;;5.50;99.90;;;;;;4992467;28;20054;-64
2022/01/13 09:26:34;;;;;;;19.40;3.67;;;5.50;99.90;;;;;;4991781;28;20049;-63
2022/01/13 09:29:02;;;;;;;22.38;4.03;;;5.60;99.90;;;;;;4993350;28;20086;-63
2022/01/13 09:31:29;;;;;;;20.98;5.95;;;5.60;99.90;;;;;;4998572;28;20112;-63
2022/01/13 09:33:56;;;;;;;23.55;3.45;;;5.60;99.90;;;;;;4986637;28;20056;-67
2022/01/13 09:36:23;;;;;;;17.58;4.15;;;5.60;99.90;;;;;;4989003;28;20153;-63
2022/01/13 09:38:50;;;;;;;29.92;5.35;;;5.60;99.90;;;;;;4986539;28;20137;-63
2022/01/13 09:41:18;;;;;;;21.98;6.60;;;5.60;99.90;;;;;;4987281;28;20088;-63
2022/01/13 09:43:45;;;;;;;19.42;3.60;;;5.60;99.90;;;;;;4985394;28;20069;-64
2022/01/13 09:46:13;;;;;;;18.50;3.95;;;5.60;99.90;;;;;;4986331;28;20046;-63
2022/01/13 09:48:41;;;;;;;18.25;4.18;;;5.60;99.90;;;;;;4988258;28;20035;-63
2022/01/13 09:51:08;;;;;;;15.93;3.33;;;5.60;99.90;;;;;;4988812;28;20108;-63
2022/01/13 09:53:36;;;;;;;11.52;3.00;;;5.60;99.90;;;;;;4975760;28;21245;-77
2022/01/13 09:56:04;;;;;;;22.27;5.28;;;5.60;99.90;;;;;;4978889;28;20739;-68
2022/01/13 09:58:31;;;;;;;12.02;3.13;;;5.60;99.90;;;;;;4975671;28;20618;-63
2022/01/13 10:00:58;;;;;;;11.00;3.53;;;5.50;99.90;;;;;;4989518;28;20066;-63
2022/01/13 10:03:27;;;;;;;19.50;5.03;;;5.50;99.90;;;;;;4992649;28;20044;-67
2022/01/13 10:05:57;;;;;;;21.02;4.82;;;5.50;99.90;;;;;;4987763;28;20046;-63
2022/01/13 10:08:46;;;;;;;12.85;3.02;;;5.50;99.90;;;;;;3339662;28;10022339;-63
2022/01/13 10:11:23;;;;;;;10.55;2.63;;;5.60;99.90;;;;;;3265004;28;10001705;-64
2022/01/13 10:16:23;;;;;;;12.40;2.65;;;5.60;99.90;;;;;;4985620;28;20042;-63
2022/01/13 10:17:07;;;;;;;14.77;4.18;;;5.60;99.90;;;;;;4987206;28;20456;-69
2022/01/13 10:19:35;;;;;;;12.43;3.33;;;5.60;99.90;;;;;;4985951;28;20652;-64
2022/01/13 10:22:30;;;;;;;12.32;5.35;;;5.50;99.90;;;;;;4988476;28;20037;-66
2022/01/13 10:24:58;;;;;;;14.20;3.20;;;5.50;99.90;;;;;;4987300;28;20879;-64
2022/01/13 10:27:33;;;;;;;20.20;3.42;;;5.60;99.90;;;;;;4985782;28;20452;-66
2022/01/13 10:30:05;;;;;;;14.20;4.40;;;5.60;99.90;;;;;;4986290;28;20038;-67
2022/01/13 10:32:36;;;;;;;17.35;3.38;;;5.60;99.90;;;;;;4982086;28;20054;-65
2022/01/13 10:35:10;;;;;;;13.85;4.72;;;5.60;99.90;;;;;;4981199;28;20454;-64
2022/01/13 10:37:50;;;;;;;9.77;3.28;;;5.70;99.90;;;;;;4987852;28;20058;-65
2022/01/13 10:40:20;;;;;;;19.30;4.25;;;5.70;99.90;;;;;;4980201;28;20112;-69
2022/01/13 10:45:19;;;;;;;14.63;2.87;;;5.60;99.90;;;;;;4995817;28;20128;-64
2022/01/13 10:47:53;;;;;;;14.20;5.65;;;5.60;99.90;;;;;;4988975;28;20122;-68
2022/01/13 10:50:21;;;;;;;13.23;3.20;;;5.60;99.90;;;;;;4989230;28;20561;-66
2022/01/13 10:52:51;;;;;;;9.93;2.35;;;5.60;99.90;;;;;;4980900;28;20046;-72
2022/01/13 10:55:23;;;;;;;19.17;4.63;;;5.60;99.90;;;;;;4972817;28;20058;-65
2022/01/13 10:58:11;;;;;;;17.30;4.40;;;5.60;99.90;;;;;;4983209;28;20134;-68
2022/01/13 11:00:39;;;;;;;21.50;5.20;;;5.70;99.90;;;;;;4990821;28;20073;-65
2022/01/13 11:03:17;;;;;;;16.17;3.20;;;5.70;99.90;;;;;;4966795;28;20150;-63
2022/01/13 11:05:53;;;;;;;12.73;4.25;;;5.70;99.90;;;;;;4980988;28;20042;-68
2022/01/13 11:08:24;;;;;;;13.50;4.15;;;5.70;99.90;;;;;;4984905;28;20062;-63
2022/01/13 11:10:56;;;;;;;14.90;4.07;;;5.80;99.90;;;;;;4981521;28;20054;-63
2022/01/13 11:13:24;;;;;;;14.70;3.22;;;5.80;99.90;;;;;;4985447;28;20050;-63
2022/01/13 11:15:55;;;;;;;18.23;3.25;;;5.80;99.90;;;;;;4984559;28;20388;-63
2022/01/13 11:18:33;;;;;;;11.55;2.38;;;5.80;99.90;;;;;;4979204;28;20063;-64
2022/01/13 11:21:02;;;;;;;14.88;6.63;;;5.90;99.90;;;;;;4979851;28;20428;-64
2022/01/13 11:23:30;;;;;;;10.98;2.58;;;5.80;99.90;;;;;;4980227;28;20038;-70
2022/01/13 11:25:58;;;;;;;13.80;3.25;;;5.80;99.90;;;;;;4982597;28;20377;-64
2022/01/13 11:28:25;;;;;;;12.02;3.13;;;5.80;99.90;;;;;;4983250;28;20077;-63
2022/01/13 11:30:53;;;;;;;14.18;2.88;;;5.80;99.90;;;;;;4987207;28;20070;-63
2022/01/13 11:33:22;;;;;;;19.63;5.43;;;5.80;99.90;;;;;;4984954;28;20136;-65
2022/01/13 11:35:57;;;;;;;7.10;2.17;;;5.80;99.90;;;;;;4983944;28;20038;-65
2022/01/13 11:38:26;;;;;;;10.93;2.13;;;5.90;99.90;;;;;;4987509;28;20089;-64
2022/01/13 11:40:59;;;;;;;14.68;3.35;;;5.80;99.90;;;;;;4982244;28;20046;-64
2022/01/13 11:43:46;;;;;;;8.60;3.08;;;5.80;99.90;;;;;;4979181;28;20097;-63
2022/01/13 11:46:19;;;;;;;14.23;3.25;;;5.80;99.90;;;;;;4970897;28;20468;-65
2022/01/13 11:52:14;;;;;;;15.18;5.93;;;5.80;99.90;;;;;;4949431;28;20101;-63
2022/01/13 11:54:42;;;;;;;11.88;2.60;;;5.90;99.90;;;;;;4995608;28;20092;-65
2022/01/13 11:57:35;;;;;;;8.45;2.70;;;5.80;99.90;;;;;;4971613;28;20038;-68
2022/01/13 12:00:01;;;;;;;10.10;3.28;;;5.80;99.90;;;;;;4987765;28;20042;-67
2022/01/13 12:02:43;;;;;;;11.35;2.67;;;5.80;99.90;;;;;;4985618;28;20138;-63
2022/01/13 12:05:14;;;;;;;6.15;3.35;;;5.80;99.90;;;;;;4984653;28;20042;-67
2022/01/13 12:07:48;;;;;;;8.73;1.77;;;5.80;99.90;;;;;;4976305;28;20050;-64
2022/01/13 12:10:21;;;;;;;6.65;2.53;;;5.80;99.90;;;;;;4986055;28;20042;-63
2022/01/13 12:12:48;;;;;;;13.88;2.47;;;5.80;99.90;;;;;;4984871;28;20046;-66
2022/01/13 12:15:19;;;;;;;12.10;2.95;;;5.80;99.90;;;;;;4986448;28;20108;-63
2022/01/13 12:18:00;;;;;;;21.08;3.35;;;5.80;99.90;;;;;;4979360;28;20401;-63
2022/01/13 12:20:38;;;;;;;12.60;2.88;;;5.80;99.90;;;;;;4988582;28;20672;-64
2022/01/13 12:23:17;;;;;;;10.50;3.40;;;5.80;99.90;;;;;;4974688;28;20077;-64
2022/01/13 12:25:44;;;;;;;10.48;2.20;;;5.80;99.90;;;;;;4983680;28;20766;-71
2022/01/13 12:28:18;;;;;;;11.23;2.13;;;5.80;99.90;;;;;;4977629;28;20074;-71
2022/01/13 12:30:46;;;;;;;13.80;2.55;;;5.80;99.90;;;;;;4976086;28;20049;-63
2022/01/13 12:33:30;;;;;;;13.10;2.47;;;5.80;99.90;;;;;;4980210;28;20046;-63
2022/01/13 12:35:57;;;;;;;16.40;3.40;;;5.80;99.90;;;;;;4982293;28;20057;-68
2022/01/13 12:38:26;;;;;;;11.00;2.55;;;5.80;99.90;;;;;;4975077;28;20092;-68
2022/01/13 12:41:15;;;;;;;9.52;2.42;;;5.80;99.90;;;;;;4980103;28;20097;-64
2022/01/13 12:46:24;;;;;;;8.35;3.00;;;5.80;99.90;;;;;;4980902;28;20038;-64
2022/01/13 12:48:54;;;;;;;13.38;3.42;;;5.80;99.90;;;;;;4981346;28;20049;-64
2022/01/13 12:51:27;;;;;;;14.43;3.80;;;5.70;99.90;;;;;;4975718;28;20098;-66
2022/01/13 12:53:57;;;;;;;10.15;2.17;;;5.70;99.90;;;;;;4973731;28;20495;-64
2022/01/13 12:56:27;;;;;;;7.85;2.50;;;5.70;99.90;;;;;;4986125;28;20141;-64
2022/01/13 12:59:00;;;;;;;13.60;2.55;;;5.70;99.90;;;;;;4984335;28;20130;-63
2022/01/13 13:01:30;;;;;;;11.25;2.30;;;5.70;99.90;;;;;;4984718;28;20042;-65
2022/01/13 13:04:02;;;;;;;7.28;2.40;;;5.70;99.90;;;;;;4988486;28;20051;-67
2022/01/13 13:06:32;;;;;;;13.75;4.38;;;5.70;99.90;;;;;;4987162;28;20129;-64
2022/01/13 13:09:08;;;;;;;9.68;2.35;;;5.80;99.90;;;;;;4987144;28;20144;-71
2022/01/13 13:11:44;;;;;;;8.27;2.30;;;5.80;99.90;;;;;;4988770;28;20104;-70
2022/01/13 13:14:19;;;;;;;11.82;2.38;;;5.80;99.90;;;;;;4983663;28;20046;-65
2022/01/13 13:16:49;;;;;;;12.73;2.53;;;5.80;99.90;;;;;;4992087;28;20121;-66
2022/01/13 13:19:19;;;;;;;16.48;4.47;;;5.80;99.90;;;;;;4977628;28;20046;-70
2022/01/13 13:21:51;;;;;;;9.30;2.85;;;5.90;99.90;;;;;;4991400;28;20047;-64
2022/01/13 13:24:23;;;;;;;8.65;2.70;;;5.90;99.90;;;;;;4982457;28;20046;-69
2022/01/13 13:26:50;;;;;;;10.00;3.08;;;5.90;99.90;;;;;;4993198;28;20041;-64
2022/01/13 13:29:27;;;;;;;10.32;2.33;;;5.80;99.90;;;;;;4982130;28;20062;-67
2022/01/13 13:31:55;;;;;;;16.42;3.50;;;5.80;99.90;;;;;;4982865;28;20120;-66
2022/01/13 13:34:28;;;;;;;13.10;2.85;;;5.80;99.90;;;;;;4992035;28;20053;-66
2022/01/13 13:36:55;;;;;;;9.65;3.63;;;5.80;99.90;;;;;;4986414;28;20050;-69
2022/01/13 13:39:24;;;;;;;7.90;3.05;;;5.80;99.90;;;;;;4990979;28;20130;-66
2022/01/13 13:41:53;;;;;;;10.15;2.55;;;5.80;99.90;;;;;;4984037;28;20137;-69
2022/01/13 13:44:23;;;;;;;9.57;2.70;;;5.80;99.90;;;;;;4990727;28;20046;-69
2022/01/13 13:46:54;;;;;;;14.43;3.72;;;5.80;99.90;;;;;;4983109;28;20042;-63
2022/01/13 13:49:23;;;;;;;10.52;2.50;;;5.80;99.90;;;;;;4984484;28;20046;-65
2022/01/13 13:51:56;;;;;;;8.75;3.72;;;5.80;99.90;;;;;;4985302;28;20221;-64
2022/01/13 13:54:27;;;;;;;19.40;5.60;;;5.80;99.90;;;;;;4984794;28;20113;-63
2022/01/13 13:57:03;;;;;;;15.70;3.58;;;5.70;99.90;;;;;;4995083;28;20089;-64